createdAt,value
2023-01-09T00:00:49.220Z,73.41
2023-01-09T00:03:16.396Z,72.29
2023-01-09T00:05:43.643Z,72.74
2023-01-09T00:08:10.778Z,70.39
2023-01-09T00:10:37.985Z,69.20
2023-01-09T00:13:05.069Z,71.22
2023-01-09T00:15:32.243Z,71.59
2023-01-09T00:17:59.431Z,71.00
2023-01-09T00:20:26.578Z,67.48
2023-01-09T00:22:53.638Z,67.55
2023-01-09T00:25:22.824Z,68.46
2023-01-09T00:27:49.968Z,68.69
2023-01-09T00:30:17.133Z,70.47
2023-01-09T00:32:44.344Z,70.78
2023-01-09T00:35:15.813Z,70.87
2023-01-09T00:37:42.926Z,72.36
2023-01-09T00:40:11.262Z,73.36
2023-01-09T00:42:39.323Z,73.78
2023-01-09T00:45:11.499Z,72.34
2023-01-09T00:47:46.934Z,72.23
2023-01-09T00:50:23.534Z,73.70
2023-01-09T00:52:53.321Z,73.80
2023-01-09T00:55:20.881Z,73.97
2023-01-09T00:57:48.400Z,74.20
2023-01-09T01:00:16.275Z,74.39
2023-01-09T01:02:43.464Z,75.17
2023-01-09T01:05:28.975Z,76.65
2023-01-09T01:07:56.070Z,76.71
2023-01-09T01:10:25.631Z,73.88
2023-01-09T01:12:53.766Z,76.08
2023-01-09T01:15:21.762Z,73.63
2023-01-09T01:17:49.000Z,74.47
2023-01-09T01:20:18.459Z,75.44
2023-01-09T01:22:45.939Z,76.07
2023-01-09T01:25:15.199Z,75.49
2023-01-09T01:27:42.372Z,76.37
2023-01-09T01:30:13.453Z,75.36
2023-01-09T01:32:41.086Z,74.91
2023-01-09T01:35:09.099Z,73.36
2023-01-09T01:37:38.293Z,73.66
2023-01-09T01:40:07.401Z,72.12
2023-01-09T01:42:34.481Z,72.94
2023-01-09T01:45:15.116Z,71.82
2023-01-09T01:47:50.925Z,72.72
2023-01-09T01:50:59.538Z,76.01
2023-01-09T01:53:35.605Z,76.62
2023-01-09T01:56:16.697Z,76.39
2023-01-09T01:59:06.778Z,76.38
2023-01-09T02:01:34.836Z,75.56
2023-01-09T02:04:02.761Z,74.30
2023-01-09T02:06:32.835Z,74.31
2023-01-09T02:09:01.402Z,72.38
2023-01-09T02:11:29.363Z,73.31
2023-01-09T02:13:56.875Z,73.91
2023-01-09T02:16:38.925Z,73.31
2023-01-09T02:19:21.211Z,74.47
2023-01-09T02:22:11.450Z,74.69
2023-01-09T02:25:17.196Z,75.68
2023-01-09T02:28:21.404Z,73.88
2023-01-09T02:31:06.347Z,69.28
2023-01-09T02:33:51.038Z,66.97
2023-01-09T02:36:25.121Z,65.87
2023-01-09T02:39:19.842Z,67.84
2023-01-09T02:42:00.532Z,68.33
2023-01-09T02:44:30.669Z,66.34
2023-01-09T02:47:03.858Z,68.89
2023-01-09T02:49:33.258Z,71.71
2023-01-09T02:52:37.381Z,69.02
2023-01-09T02:55:07.269Z,73.41
2023-01-09T02:57:49.646Z,73.37
2023-01-09T03:00:32.538Z,70.60
2023-01-09T03:03:23.025Z,68.76
2023-01-09T03:06:35.393Z,67.69
2023-01-09T03:09:12.204Z,64.52
2023-01-09T03:11:44.083Z,65.65
2023-01-09T03:14:16.310Z,66.90
2023-01-09T03:16:48.396Z,69.17
2023-01-09T03:19:19.439Z,69.47
2023-01-09T03:21:47.427Z,68.95
2023-01-09T03:24:14.870Z,70.58
2023-01-09T03:26:42.749Z,71.42
2023-01-09T03:29:10.149Z,70.05
2023-01-09T03:31:37.314Z,70.49
2023-01-09T03:34:04.701Z,68.41
2023-01-09T03:36:31.767Z,69.43
2023-01-09T03:38:58.911Z,67.86
2023-01-09T03:41:25.980Z,68.09
2023-01-09T03:43:53.006Z,68.47
2023-01-09T03:46:20.049Z,67.84
2023-01-09T03:48:48.080Z,67.42
2023-01-09T03:51:15.164Z,65.84
2023-01-09T03:53:42.255Z,65.79
2023-01-09T03:56:09.416Z,65.07
2023-01-09T03:58:36.537Z,65.03
2023-01-09T04:01:05.804Z,63.25
2023-01-09T04:03:33.119Z,62.99
2023-01-09T04:06:00.197Z,64.01
2023-01-09T04:08:27.326Z,64.32
2023-01-09T04:10:54.397Z,63.94
2023-01-09T04:13:21.542Z,62.75
2023-01-09T04:15:49.067Z,61.93
2023-01-09T04:18:16.611Z,60.71
2023-01-09T04:20:48.591Z,61.38
2023-01-09T04:23:16.504Z,61.62
2023-01-09T04:25:43.688Z,63.18
2023-01-09T04:28:10.761Z,62.78
2023-01-09T04:30:37.896Z,62.84
2023-01-09T04:33:05.004Z,63.21
2023-01-09T04:35:32.125Z,63.28
2023-01-09T04:38:00.873Z,64.85
2023-01-09T04:40:28.307Z,64.10
2023-01-09T04:42:55.434Z,64.35
2023-01-09T04:45:22.623Z,63.50
2023-01-09T04:47:49.744Z,63.80
2023-01-09T04:50:17.110Z,63.38
2023-01-09T04:52:44.375Z,60.96
2023-01-09T04:55:11.530Z,60.30
2023-01-09T04:57:39.843Z,62.39
2023-01-09T05:00:09.904Z,64.54
2023-01-09T05:02:37.759Z,65.07
2023-01-09T05:05:06.464Z,65.74
2023-01-09T05:07:34.177Z,65.24
2023-01-09T05:10:02.501Z,64.17
2023-01-09T05:12:33.203Z,64.22
2023-01-09T05:15:00.394Z,64.46
2023-01-09T05:17:27.481Z,64.22
2023-01-09T05:19:54.646Z,61.84
2023-01-09T05:22:21.749Z,62.50
2023-01-09T05:24:48.846Z,63.64
2023-01-09T05:27:15.946Z,64.78
2023-01-09T05:29:42.995Z,67.37
2023-01-09T05:32:10.155Z,68.58
2023-01-09T05:34:37.284Z,68.10
2023-01-09T05:37:04.460Z,65.93
2023-01-09T05:39:31.662Z,64.65
2023-01-09T05:41:58.725Z,64.58
2023-01-09T05:44:25.791Z,66.01
2023-01-09T05:46:52.866Z,65.30
2023-01-09T05:49:19.980Z,63.84
2023-01-09T05:51:47.029Z,65.73
2023-01-09T05:54:14.177Z,65.97
2023-01-09T05:56:42.768Z,65.23
2023-01-09T05:59:10.078Z,66.26
2023-01-09T06:01:37.273Z,64.60
2023-01-09T06:04:04.477Z,64.24
2023-01-09T06:06:31.564Z,62.85
2023-01-09T06:08:58.679Z,62.71
2023-01-09T06:11:25.731Z,60.18
2023-01-09T06:13:52.853Z,61.10
2023-01-09T06:16:19.995Z,65.04
2023-01-09T06:18:47.147Z,65.46
2023-01-09T06:21:14.271Z,63.63
2023-01-09T06:23:41.338Z,63.47
2023-01-09T06:26:08.644Z,63.08
2023-01-09T06:28:35.749Z,61.73
2023-01-09T06:31:02.973Z,61.13
2023-01-09T06:33:30.169Z,62.05
2023-01-09T06:35:57.248Z,62.49
2023-01-09T06:38:24.361Z,63.21
2023-01-09T06:40:51.805Z,64.30
2023-01-09T06:43:18.942Z,66.12
2023-01-09T06:45:46.090Z,70.55
2023-01-09T06:48:13.265Z,70.18
2023-01-09T06:50:40.639Z,66.59
2023-01-09T06:53:08.178Z,66.07
2023-01-09T06:55:35.441Z,65.86
2023-01-09T06:58:02.684Z,65.74
2023-01-09T07:00:31.549Z,67.27
2023-01-09T07:02:58.819Z,69.78
2023-01-09T07:05:26.018Z,66.58
2023-01-09T07:07:53.223Z,67.12
2023-01-09T07:10:20.400Z,66.09
2023-01-09T07:12:47.550Z,65.40
2023-01-09T07:15:14.836Z,66.98
2023-01-09T07:17:41.927Z,66.83
2023-01-09T07:20:09.793Z,67.76
2023-01-09T07:22:37.246Z,64.96
2023-01-09T07:25:04.791Z,65.06
2023-01-09T07:27:31.937Z,63.76
2023-01-09T07:29:59.031Z,61.90
2023-01-09T07:32:26.212Z,62.44
2023-01-09T07:34:55.046Z,61.37
2023-01-09T07:37:22.088Z,60.51
2023-01-09T07:39:49.151Z,62.95
2023-01-09T07:42:16.431Z,65.06
2023-01-09T07:44:43.676Z,65.75
2023-01-09T07:47:10.964Z,66.99
2023-01-09T07:49:38.035Z,63.82
2023-01-09T07:52:05.212Z,64.44
2023-01-09T07:54:32.411Z,63.22
2023-01-09T07:56:59.603Z,64.34
2023-01-09T07:59:28.939Z,61.04
2023-01-09T08:01:56.824Z,62.83
2023-01-09T08:04:24.068Z,62.00
2023-01-09T08:06:51.180Z,61.58
2023-01-09T08:09:18.946Z,62.46
2023-01-09T08:11:46.021Z,63.91
2023-01-09T08:14:13.258Z,63.29
2023-01-09T08:16:40.404Z,63.15
2023-01-09T08:19:07.607Z,62.44
2023-01-09T08:21:34.751Z,61.98
2023-01-09T08:24:01.902Z,63.98
2023-01-09T08:26:29.110Z,63.72
2023-01-09T08:28:56.278Z,65.23
2023-01-09T08:31:23.480Z,65.53
2023-01-09T08:33:50.896Z,62.57
2023-01-09T08:36:18.025Z,60.65
2023-01-09T08:38:45.131Z,62.51
2023-01-09T08:41:30.652Z,64.37
2023-01-09T08:44:16.168Z,66.47
2023-01-09T08:47:01.788Z,65.69
2023-01-09T08:49:28.886Z,65.28
2023-01-09T08:51:55.968Z,66.77
2023-01-09T08:54:23.053Z,66.50
2023-01-09T08:56:50.229Z,67.43
2023-01-09T08:59:17.467Z,68.32
2023-01-09T09:01:44.785Z,68.09
2023-01-09T09:04:11.990Z,66.56
2023-01-09T09:06:39.051Z,65.31
2023-01-09T09:09:06.945Z,65.67
2023-01-09T09:11:34.478Z,65.78
2023-01-09T09:14:22.612Z,65.95
2023-01-09T09:16:51.994Z,65.92
2023-01-09T09:19:19.175Z,64.39
2023-01-09T09:21:46.327Z,64.44
2023-01-09T09:24:13.532Z,63.95
2023-01-09T09:26:41.511Z,61.78
2023-01-09T09:29:09.402Z,60.88
2023-01-09T09:31:38.823Z,63.04
2023-01-09T09:34:07.184Z,64.27
2023-01-09T09:36:34.718Z,62.03
2023-01-09T09:39:02.920Z,60.65
2023-01-09T09:42:24.837Z,60.42
2023-01-09T09:45:19.629Z,59.37
2023-01-09T09:47:52.358Z,58.84
2023-01-09T09:51:03.102Z,64.35
2023-01-09T09:53:54.050Z,66.69
2023-01-09T09:56:23.509Z,65.54
2023-01-09T09:59:03.774Z,65.68
2023-01-09T10:02:05.054Z,64.52
2023-01-09T10:04:36.956Z,61.54
2023-01-09T10:07:15.824Z,62.67
2023-01-09T10:09:50.565Z,62.39
2023-01-09T10:12:27.659Z,63.27
2023-01-09T10:14:57.709Z,61.03
2023-01-09T10:17:46.452Z,61.00
2023-01-09T10:20:25.605Z,59.57
2023-01-09T10:23:15.396Z,58.49
2023-01-09T10:26:01.080Z,57.46
2023-01-09T10:28:49.965Z,56.75
2023-01-09T10:31:30.490Z,57.13
2023-01-09T10:34:14.584Z,56.17
2023-01-09T10:37:05.610Z,56.60
2023-01-09T10:39:41.377Z,56.09
2023-01-09T10:42:11.406Z,56.55
2023-01-09T10:44:47.428Z,54.76
2023-01-09T10:47:32.829Z,55.29
2023-01-09T10:50:01.851Z,56.43
2023-01-09T10:52:41.387Z,57.10
2023-01-09T10:55:23.272Z,56.26
2023-01-09T10:57:57.444Z,57.03
2023-01-09T11:00:25.146Z,56.99
2023-01-09T11:02:54.920Z,57.59
2023-01-09T11:05:31.131Z,58.92
2023-01-09T11:08:13.982Z,59.18
2023-01-09T11:10:50.277Z,58.19
2023-01-09T11:13:33.182Z,57.65
2023-01-09T11:16:07.896Z,57.71
2023-01-09T11:18:39.794Z,55.85
2023-01-09T11:21:33.139Z,57.25
2023-01-09T11:24:24.019Z,58.91
2023-01-09T11:26:53.485Z,58.53
2023-01-09T11:29:26.124Z,58.17
2023-01-09T11:31:58.556Z,57.26
2023-01-09T11:34:28.665Z,56.97
2023-01-09T11:37:04.627Z,58.33
2023-01-09T11:39:35.181Z,59.40
2023-01-09T11:42:08.653Z,60.01
2023-01-09T11:44:36.262Z,59.99
2023-01-09T11:47:23.798Z,61.86
2023-01-09T11:49:51.417Z,62.76
2023-01-09T11:52:21.020Z,61.86
2023-01-09T11:55:04.444Z,62.54
2023-01-09T11:57:32.320Z,61.76
2023-01-09T12:00:03.675Z,62.32
2023-01-09T12:02:51.463Z,64.73
2023-01-09T12:05:55.533Z,63.54
2023-01-09T12:08:25.530Z,65.24
2023-01-09T12:10:55.561Z,67.04
2023-01-09T12:14:04.450Z,66.61
2023-01-09T12:16:51.137Z,65.29
2023-01-09T12:19:18.195Z,63.33
2023-01-09T12:22:24.183Z,62.92
2023-01-09T12:25:20.086Z,63.65
2023-01-09T12:27:59.159Z,63.69
2023-01-09T12:31:00.423Z,64.16
2023-01-09T12:33:44.317Z,64.60
2023-01-09T12:36:17.396Z,66.09
2023-01-09T12:38:54.791Z,65.90
2023-01-09T12:41:37.982Z,65.80
2023-01-09T12:45:01.405Z,65.09
2023-01-09T12:47:49.043Z,63.73
2023-01-09T12:50:31.748Z,65.14
2023-01-09T12:53:06.174Z,65.74
2023-01-09T12:55:48.572Z,65.00
2023-01-09T12:58:34.260Z,64.72
2023-01-09T13:01:07.525Z,64.90
2023-01-09T13:03:43.286Z,65.55
2023-01-09T13:06:16.730Z,66.08
2023-01-09T13:09:05.566Z,66.12
2023-01-09T13:11:41.843Z,67.01
2023-01-09T13:14:19.755Z,67.37
2023-01-09T13:16:53.371Z,69.47
2023-01-09T13:19:54.250Z,69.53
2023-01-09T13:22:26.148Z,70.76
2023-01-09T13:25:19.611Z,70.19
2023-01-09T13:27:58.048Z,69.54
2023-01-09T13:30:38.904Z,68.49
2023-01-09T13:33:13.539Z,67.47
2023-01-09T13:35:55.228Z,66.87
2023-01-09T13:38:25.091Z,66.86
2023-01-09T13:41:35.441Z,66.24
2023-01-09T13:44:08.974Z,66.76
2023-01-09T13:46:48.915Z,67.11
2023-01-09T13:49:44.165Z,66.80
2023-01-09T13:52:31.877Z,67.16
2023-01-09T13:54:58.961Z,68.18
2023-01-09T13:57:29.081Z,67.96
2023-01-09T14:00:19.648Z,69.62
2023-01-09T14:02:50.019Z,67.56
2023-01-09T14:05:37.235Z,67.33
2023-01-09T14:08:11.594Z,68.60
2023-01-09T14:10:47.798Z,67.69
2023-01-09T14:13:22.952Z,68.18
2023-01-09T14:15:52.654Z,70.12
2023-01-09T14:18:32.719Z,69.10
2023-01-09T14:21:03.288Z,67.26
2023-01-09T14:23:52.664Z,66.86
2023-01-09T14:26:41.086Z,66.67
2023-01-09T14:29:43.509Z,66.57
2023-01-09T14:32:22.872Z,65.97
2023-01-09T14:35:02.402Z,65.88
2023-01-09T14:37:31.154Z,69.90
2023-01-09T14:39:59.105Z,70.03
2023-01-09T14:42:29.587Z,71.10
2023-01-09T14:45:14.361Z,69.11
2023-01-09T14:47:49.311Z,70.12
2023-01-09T14:50:19.031Z,68.52
2023-01-09T14:52:53.279Z,67.82
2023-01-09T14:55:30.086Z,64.97
2023-01-09T14:58:10.993Z,65.40
2023-01-09T15:00:47.833Z,64.75
2023-01-09T15:03:15.867Z,64.32
2023-01-09T15:05:45.799Z,64.01
2023-01-09T15:08:18.264Z,63.64
2023-01-09T15:10:48.094Z,63.55
2023-01-09T15:13:37.702Z,63.80
2023-01-09T15:16:06.662Z,66.89
2023-01-09T15:18:42.062Z,67.79
2023-01-09T15:21:19.375Z,68.35
2023-01-09T15:23:46.594Z,68.20
2023-01-09T15:26:26.330Z,66.97
2023-01-09T15:29:00.960Z,73.80
2023-01-09T15:31:28.966Z,75.13
2023-01-09T15:33:57.137Z,71.16
2023-01-09T15:36:27.347Z,71.16
2023-01-09T15:38:54.937Z,71.01
2023-01-09T15:41:48.857Z,70.97
2023-01-09T15:44:28.518Z,70.92
2023-01-09T15:47:00.740Z,70.68
2023-01-09T15:49:28.228Z,72.76
2023-01-09T15:51:56.165Z,73.48
2023-01-09T15:54:30.409Z,71.49
2023-01-09T15:57:25.264Z,70.16
2023-01-09T15:59:53.365Z,69.67
2023-01-09T16:02:41.108Z,70.27
2023-01-09T16:05:18.339Z,70.58
2023-01-09T16:07:47.140Z,69.72
2023-01-09T16:10:25.541Z,68.38
2023-01-09T16:12:53.335Z,67.58
2023-01-09T16:15:21.129Z,69.10
2023-01-09T16:18:28.003Z,67.47
2023-01-09T16:21:03.288Z,67.92
2023-01-09T16:23:33.184Z,70.38
2023-01-09T16:26:12.992Z,70.48
2023-01-09T16:28:43.177Z,70.04
2023-01-09T16:31:28.161Z,68.48
2023-01-09T16:33:59.568Z,68.00
2023-01-09T16:36:28.006Z,67.97
2023-01-09T16:38:56.472Z,67.94
2023-01-09T16:41:42.368Z,67.37
2023-01-09T16:44:10.708Z,65.82
2023-01-09T16:46:43.943Z,65.05
2023-01-09T16:49:27.170Z,68.26
2023-01-09T16:51:55.184Z,70.01
2023-01-09T16:54:22.302Z,68.70
2023-01-09T16:56:52.616Z,68.02
2023-01-09T16:59:25.099Z,65.85
2023-01-09T17:01:53.639Z,66.60
2023-01-09T17:04:21.330Z,64.82
2023-01-09T17:06:49.267Z,64.60
2023-01-09T17:09:24.076Z,64.48
2023-01-09T17:11:52.443Z,65.28
2023-01-09T17:14:19.597Z,65.87
2023-01-09T17:16:46.908Z,67.02
2023-01-09T17:19:18.965Z,68.89
2023-01-09T17:21:46.506Z,68.31
2023-01-09T17:24:32.065Z,66.74
2023-01-09T17:27:19.110Z,67.05
2023-01-09T17:29:46.505Z,65.70
2023-01-09T17:32:19.322Z,65.38
2023-01-09T17:34:46.433Z,64.48
2023-01-09T17:37:19.080Z,63.47
2023-01-09T17:39:46.428Z,66.16
2023-01-09T17:42:13.610Z,67.37
2023-01-09T17:44:40.847Z,66.57
2023-01-09T17:47:15.276Z,67.06
2023-01-09T17:49:42.860Z,68.34
2023-01-09T17:52:09.986Z,67.06
2023-01-09T17:54:37.090Z,65.48
2023-01-09T17:57:04.512Z,65.64
2023-01-09T17:59:31.718Z,65.55
2023-01-09T18:01:58.918Z,64.52
2023-01-09T18:04:26.041Z,64.88
2023-01-09T18:06:54.682Z,64.37
2023-01-09T18:09:21.849Z,64.27
2023-01-09T18:11:48.939Z,65.00
2023-01-09T18:14:17.213Z,65.74
2023-01-09T18:16:45.386Z,64.56
2023-01-09T18:19:12.893Z,65.58
2023-01-09T18:21:40.101Z,66.38
2023-01-09T18:24:08.860Z,67.76
2023-01-09T18:26:35.956Z,67.31
2023-01-09T18:29:03.658Z,67.07
2023-01-09T18:31:31.602Z,67.71
2023-01-09T18:34:02.562Z,67.07
2023-01-09T18:36:30.933Z,66.54
2023-01-09T18:39:00.332Z,64.76
2023-01-09T18:41:28.726Z,64.97
2023-01-09T18:43:58.340Z,64.67
2023-01-09T18:46:30.844Z,63.86
2023-01-09T18:49:00.262Z,65.30
2023-01-09T18:51:28.649Z,64.63
2023-01-09T18:53:55.978Z,65.18
2023-01-09T18:56:24.892Z,65.43
2023-01-09T18:58:57.338Z,65.70
2023-01-09T19:01:26.025Z,67.14
2023-01-09T19:03:53.412Z,68.42
2023-01-09T19:06:20.708Z,68.32
2023-01-09T19:08:48.097Z,69.47
2023-01-09T19:11:15.597Z,68.42
2023-01-09T19:13:42.800Z,67.98
2023-01-09T19:16:10.664Z,66.94
2023-01-09T19:18:41.967Z,66.72
2023-01-09T19:21:11.443Z,66.10
2023-01-09T19:23:39.836Z,67.23
2023-01-09T19:26:09.079Z,68.12
2023-01-09T19:28:36.649Z,67.55
2023-01-09T19:31:03.963Z,67.52
2023-01-09T19:33:31.099Z,68.29
2023-01-09T19:35:58.250Z,67.43
2023-01-09T19:38:26.942Z,67.97
2023-01-09T19:40:54.102Z,66.88
2023-01-09T19:43:27.535Z,66.94
2023-01-09T19:45:56.179Z,66.48
2023-01-09T19:48:24.334Z,66.98
2023-01-09T19:50:51.439Z,68.36
2023-01-09T19:53:18.583Z,71.90
2023-01-09T19:55:45.658Z,73.14
2023-01-09T19:58:12.860Z,72.45
2023-01-09T20:00:40.016Z,70.69
2023-01-09T20:03:07.135Z,68.95
2023-01-09T20:05:34.333Z,67.37
2023-01-09T20:08:05.725Z,66.32
2023-01-09T20:10:33.838Z,66.80
2023-01-09T20:13:00.926Z,69.89
2023-01-09T20:15:28.025Z,69.23
2023-01-09T20:17:55.087Z,69.98
2023-01-09T20:20:22.339Z,69.43
2023-01-09T20:22:49.382Z,67.09
2023-01-09T20:25:16.473Z,67.72
2023-01-09T20:27:43.575Z,67.76
2023-01-09T20:30:11.292Z,67.48
2023-01-09T20:32:38.522Z,66.08
2023-01-09T20:35:06.056Z,65.69
2023-01-09T20:37:33.257Z,64.51
2023-01-09T20:40:00.583Z,63.92
2023-01-09T20:42:27.639Z,64.26
2023-01-09T20:44:55.766Z,65.78
2023-01-09T20:47:22.853Z,67.56
2023-01-09T20:49:49.946Z,66.55
2023-01-09T20:52:17.000Z,66.44
2023-01-09T20:54:46.102Z,65.35
2023-01-09T20:57:13.237Z,65.91
2023-01-09T20:59:40.450Z,65.53
2023-01-09T21:02:14.550Z,65.07
2023-01-09T21:04:41.655Z,65.28
2023-01-09T21:07:10.893Z,64.63
2023-01-09T21:09:38.050Z,64.21
2023-01-09T21:12:24.728Z,65.39
2023-01-09T21:14:51.976Z,66.00
2023-01-09T21:17:19.161Z,64.00
2023-01-09T21:19:46.398Z,65.57
2023-01-09T21:22:13.519Z,65.49
2023-01-09T21:24:40.601Z,63.81
2023-01-09T21:27:07.839Z,63.58
2023-01-09T21:29:34.997Z,64.24
2023-01-09T21:32:02.143Z,67.02
2023-01-09T21:34:29.260Z,65.81
2023-01-09T21:36:56.765Z,67.02
2023-01-09T21:39:23.937Z,67.70
2023-01-09T21:42:09.414Z,68.36
2023-01-09T21:44:54.999Z,68.53
2023-01-09T21:47:22.936Z,69.64
2023-01-09T21:50:09.576Z,67.15
2023-01-09T21:52:37.428Z,67.12
2023-01-09T21:55:04.903Z,67.84
2023-01-09T21:57:32.152Z,67.25
2023-01-09T21:59:59.319Z,65.96
2023-01-09T22:02:26.432Z,64.90
2023-01-09T22:04:59.986Z,64.61
2023-01-09T22:07:27.134Z,65.77
2023-01-09T22:09:54.216Z,65.58
2023-01-09T22:12:21.266Z,65.02
2023-01-09T22:14:48.307Z,63.73
2023-01-09T22:17:15.431Z,63.71
2023-01-09T22:19:42.535Z,62.95
2023-01-09T22:22:09.673Z,62.65
2023-01-09T22:24:36.831Z,61.82
2023-01-09T22:27:04.348Z,63.23
2023-01-09T22:29:31.555Z,64.21
2023-01-09T22:31:58.692Z,65.06
2023-01-09T22:34:25.966Z,65.71
2023-01-09T22:36:53.069Z,66.47
2023-01-09T22:39:20.340Z,66.86
2023-01-09T22:41:52.550Z,66.80
2023-01-09T22:44:19.626Z,67.77
2023-01-09T22:46:46.758Z,67.79
2023-01-09T22:49:14.319Z,67.59
2023-01-09T22:51:41.454Z,67.10
2023-01-09T22:54:08.757Z,66.44
2023-01-09T22:56:35.916Z,67.96
2023-01-09T22:59:03.108Z,69.27
2023-01-09T23:01:30.209Z,69.67
2023-01-09T23:03:57.279Z,69.51
2023-01-09T23:06:25.504Z,68.71
2023-01-09T23:08:53.120Z,68.24
2023-01-09T23:11:45.652Z,68.21
2023-01-09T23:14:13.094Z,67.04
2023-01-09T23:16:40.875Z,66.30
2023-01-09T23:19:14.751Z,65.77
2023-01-09T23:21:42.860Z,65.05
2023-01-09T23:24:11.070Z,64.58
2023-01-09T23:26:41.494Z,64.19
2023-01-09T23:29:08.568Z,65.55
2023-01-09T23:31:36.351Z,65.52
2023-01-09T23:34:04.780Z,64.58
2023-01-09T23:36:31.911Z,65.17
2023-01-09T23:38:59.805Z,66.81
2023-01-09T23:41:45.796Z,64.89
2023-01-09T23:44:12.883Z,66.54
2023-01-09T23:46:39.980Z,66.73
2023-01-09T23:49:07.150Z,65.37
2023-01-09T23:51:34.317Z,66.59
2023-01-09T23:54:01.395Z,69.55
2023-01-09T23:56:30.737Z,69.69
2023-01-09T23:58:58.172Z,69.56
